Time;durP1;ratioP1;P1;durP2;ratioP2;P2;SDS_P1;SDS_P2;PMS_P1;PMS_P2;Temp;Humidity;BMP_temperature;BMP_pressure;BME280_temperature;BME280_humidity;BME280_pressure;Samples;Min_cycle;Max_cycle;Signal;HPM_P1;HPM_P2
2024/03/23 00:00:08;;;;;;;1999.90;999.90;;;;;;;7.19;100.00;101005.38;10501239;28;20048;-68
2024/03/23 00:05:11;;;;;;;1999.90;999.90;;;;;;;6.74;100.00;100995.88;10501272;28;20057;-68
2024/03/23 00:10:13;;;;;;;1999.90;999.90;;;;;;;6.72;100.00;100988.13;10500415;28;20055;-68
2024/03/23 00:15:16;;;;;;;1999.90;999.90;;;;;;;6.73;100.00;100970.75;10501185;28;20060;-68
2024/03/23 00:20:18;;;;;;;1999.90;999.90;;;;;;;6.93;100.00;100977.81;10500243;28;20053;-68
2024/03/23 00:25:20;;;;;;;1999.90;999.90;;;;;;;6.48;100.00;100975.13;10500183;28;20056;-68
2024/03/23 00:30:23;;;;;;;1999.90;999.90;;;;;;;6.78;100.00;100977.47;10500192;28;20486;-68
2024/03/23 00:35:25;;;;;;;1999.90;999.90;;;;;;;6.69;100.00;100970.00;10499522;28;20414;-68
2024/03/23 00:40:27;;;;;;;1999.90;999.90;;;;;;;6.63;100.00;100962.47;10499840;28;20052;-68
2024/03/23 00:45:30;;;;;;;1999.90;999.90;;;;;;;6.67;100.00;100958.81;10499140;28;20044;-68
2024/03/23 00:50:32;;;;;;;1999.90;999.90;;;;;;;6.56;100.00;100945.41;10498963;28;20048;-69
2024/03/23 00:55:33;;;;;;;1999.90;999.90;;;;;;;6.69;100.00;100930.97;10482988;28;20075;-69
2024/03/23 01:00:35;;;;;;;1999.90;999.90;;;;;;;6.69;100.00;100934.44;10499299;28;20044;-69
2024/03/23 01:05:36;;;;;;;1999.90;999.90;;;;;;;6.60;100.00;100936.56;10498639;28;20485;-69
2024/03/23 01:10:38;;;;;;;1999.90;999.90;;;;;;;6.56;100.00;100943.63;10497480;28;20398;-69
2024/03/23 01:15:39;;;;;;;1999.90;999.90;;;;;;;6.63;100.00;100936.44;10497982;28;20444;-69
2024/03/23 01:20:40;;;;;;;1999.90;999.90;;;;;;;6.48;100.00;100938.72;10497322;28;20074;-68
2024/03/23 01:25:42;;;;;;;1999.90;999.90;;;;;;;6.47;100.00;100931.84;10498584;28;20052;-68
2024/03/23 01:30:43;;;;;;;1999.90;999.90;;;;;;;6.43;100.00;100922.44;10498034;28;20040;-69
2024/03/23 01:35:44;;;;;;;1999.90;999.90;;;;;;;6.43;100.00;100911.19;10497504;28;20049;-69
2024/03/23 01:40:46;;;;;;;1999.90;999.90;;;;;;;6.42;100.00;100899.94;10496559;28;20493;-69
2024/03/23 01:45:47;;;;;;;1999.90;999.90;;;;;;;6.38;100.00;100915.72;10497246;28;20053;-69
2024/03/23 01:50:49;;;;;;;1999.90;999.90;;;;;;;6.49;100.00;100903.16;10496508;28;20456;-69
2024/03/23 01:55:51;;;;;;;1999.90;999.90;;;;;;;6.54;100.00;100898.63;10538971;22;20059;-69
2024/03/23 02:00:53;;;;;;;1999.90;999.90;;;;;;;6.47;100.00;100887.63;10538213;28;20052;-69
2024/03/23 02:05:55;;;;;;;1999.90;999.90;;;;;;;6.47;100.00;100879.81;10538900;28;20056;-69
2024/03/23 02:10:56;;;;;;;1999.90;999.90;;;;;;;6.22;100.00;100879.91;10538016;28;20055;-69
2024/03/23 02:15:58;;;;;;;1999.90;999.90;;;;;;;6.28;100.00;100869.25;10538519;28;20056;-69
2024/03/23 02:20:59;;;;;;;1999.90;999.90;;;;;;;6.24;100.00;100872.06;10537808;28;20059;-69
2024/03/23 02:26:01;;;;;;;1999.90;999.90;;;;;;;6.25;100.00;100871.13;10538179;28;20051;-69
2024/03/23 02:31:04;;;;;;;1999.90;999.90;;;;;;;6.34;100.00;100870.78;10537625;28;20044;-69
2024/03/23 02:36:06;;;;;;;1999.90;999.90;;;;;;;6.14;100.00;100869.78;10537681;28;20052;-69
2024/03/23 02:41:07;;;;;;;1999.90;999.90;;;;;;;6.25;100.00;100861.56;10555283;28;20048;-69
2024/03/23 02:46:09;;;;;;;1999.90;999.90;;;;;;;6.33;100.00;100859.53;10538359;28;20051;-69
2024/03/23 02:51:10;;;;;;;1999.90;999.90;;;;;;;6.09;100.00;100863.06;10520200;28;20052;-70
2024/03/23 02:56:15;;;;;;;1999.90;999.90;;;;;;;6.15;100.00;100862.81;10537517;28;20052;-69
2024/03/23 03:01:17;;;;;;;1999.90;999.90;;;;;;;6.20;100.00;100867.84;10537452;28;20056;-69
2024/03/23 03:06:30;;;;;;;1999.90;999.90;;;;;;;6.42;100.00;100867.88;10536967;28;20416;-70
2024/03/23 03:11:31;;;;;;;1999.90;999.90;;;;;;;6.42;100.00;100871.34;10536882;28;20048;-70
2024/03/23 03:16:33;;;;;;;1999.90;999.90;;;;;;;6.12;100.00;100868.16;10536986;28;20500;-69
2024/03/23 03:21:34;;;;;;;1999.90;999.90;;;;;;;6.22;100.00;100868.63;10536629;28;20404;-70
2024/03/23 03:26:36;;;;;;;1999.90;999.90;;;;;;;6.25;100.00;100871.13;10537067;28;20086;-70
2024/03/23 03:31:37;;;;;;;1999.90;999.90;;;;;;;6.25;100.00;100873.72;10536878;28;20400;-69
2024/03/23 03:36:39;;;;;;;1999.90;999.90;;;;;;;6.27;100.00;100871.91;10560955;28;20059;-70
2024/03/23 03:41:40;;;;;;;1999.90;999.90;;;;;;;6.30;100.00;100867.47;10544103;28;20040;-69
2024/03/23 03:46:42;;;;;;;1999.90;999.90;;;;;;;6.16;100.00;100851.53;10543468;28;20407;-70
2024/03/23 03:51:43;;;;;;;1999.90;999.90;;;;;;;6.17;100.00;100850.63;10526009;28;20484;-70
2024/03/23 03:56:45;;;;;;;1999.90;999.90;;;;;;;6.10;100.00;100847.44;10543863;28;20053;-70
2024/03/23 04:01:46;;;;;;;1999.90;999.90;;;;;;;6.20;100.00;100844.47;10560643;28;20055;-70
2024/03/23 04:06:47;;;;;;;1999.90;999.90;;;;;;;6.13;100.00;100838.66;10543712;28;20059;-70
2024/03/23 04:11:49;;;;;;;1999.90;999.90;;;;;;;5.94;100.00;100836.72;10526013;28;20067;-70
2024/03/23 04:16:50;;;;;;;1999.90;999.90;;;;;;;5.94;100.00;100847.09;10543266;28;20109;-70
2024/03/23 04:21:52;;;;;;;1999.90;999.90;;;;;;;5.98;100.00;100841.81;10542706;28;20052;-70
2024/03/23 04:26:53;;;;;;;1999.90;999.90;;;;;;;5.93;100.00;100844.56;10543026;28;20060;-70
2024/03/23 04:31:55;;;;;;;1999.90;999.90;;;;;;;5.80;100.00;100835.53;10542192;28;20055;-70
2024/03/23 04:36:56;;;;;;;1999.90;999.90;;;;;;;5.69;100.00;100838.53;10542677;28;20097;-70
2024/03/23 04:41:58;;;;;;;1999.90;999.90;;;;;;;5.59;100.00;100841.44;10542129;28;20059;-70
2024/03/23 04:47:00;;;;;;;1999.90;999.90;;;;;;;5.67;100.00;100832.53;10540834;28;20109;-70
2024/03/23 04:52:05;;;;;;;1999.90;999.90;;;;;;;5.39;100.00;100844.75;10524718;28;20060;-70
2024/03/23 04:57:06;;;;;;;1999.90;999.90;;;;;;;5.43;100.00;100837.72;10558385;28;20405;-70
2024/03/23 05:02:08;;;;;;;1999.90;999.90;;;;;;;5.42;100.00;100830.81;10540699;28;20408;-70
2024/03/23 05:07:09;;;;;;;1999.90;999.90;;;;;;;5.48;100.00;100821.94;10540433;28;20493;-70
2024/03/23 05:12:11;;;;;;;1999.90;999.90;;;;;;;5.43;100.00;100827.34;10523884;28;20488;-70
2024/03/23 05:17:13;;;;;;;1999.90;999.90;;;;;;;5.33;100.00;100837.19;10540709;28;20507;-70
2024/03/23 05:22:14;;;;;;;1999.90;999.90;;;;;;;5.34;100.00;100833.66;10522959;28;20507;-70
2024/03/23 05:27:16;;;;;;;1999.90;999.90;;;;;;;5.29;100.00;100839.94;10540091;28;20488;-70
2024/03/23 05:32:17;;;;;;;1999.90;999.90;;;;;;;5.09;100.00;100833.66;10539955;28;20052;-70
2024/03/23 05:37:19;;;;;;;1999.90;999.90;;;;;;;4.99;100.00;100847.84;10539624;28;20054;-70
2024/03/23 05:42:20;;;;;;;1999.90;999.90;;;;;;;5.11;100.00;100837.09;10540413;28;20052;-70
2024/03/23 05:47:22;;;;;;;1999.90;999.90;;;;;;;5.12;100.00;100845.72;10539509;28;20052;-70
2024/03/23 05:52:25;;;;;;;1999.90;999.90;;;;;;;4.97;100.00;100834.94;10522412;28;20072;-70
2024/03/23 05:57:26;;;;;;;1999.90;999.90;;;;;;;5.00;100.00;100831.41;10538950;28;20056;-70
2024/03/23 06:02:27;;;;;;;1999.90;999.90;;;;;;;5.29;100.00;100829.56;10555820;28;20056;-70
2024/03/23 06:07:29;;;;;;;1999.90;999.90;;;;;;;5.39;100.00;100838.72;10539357;28;20052;-70
2024/03/23 06:12:30;;;;;;;1999.90;999.90;;;;;;;5.40;100.00;100843.84;10538982;28;20051;-70
2024/03/23 06:17:33;;;;;;;1999.90;999.90;;;;;;;5.49;100.00;100845.28;10539092;28;20097;-70
2024/03/23 06:22:34;;;;;;;1999.90;999.90;;;;;;;5.36;100.00;100846.59;10538430;28;20067;-70
2024/03/23 06:27:35;;;;;;;1999.90;999.90;;;;;;;5.28;100.00;100846.03;10538229;28;20047;-70
2024/03/23 06:32:37;;;;;;;1999.90;999.90;;;;;;;5.38;100.00;100847.41;10537659;28;20488;-70
2024/03/23 06:37:41;;;;;;;1999.90;999.90;;;;;;;5.48;100.00;100838.41;10537764;28;20553;-70
2024/03/23 06:42:42;;;;;;;1999.90;999.90;;;;;;;5.58;100.00;100834.56;10538116;28;20105;-70
2024/03/23 06:47:44;;;;;;;1999.90;999.90;;;;;;;5.66;100.00;100836.03;10537490;28;20048;-70
2024/03/23 06:52:45;;;;;;;1999.90;999.90;;;;;;;5.98;100.00;100845.25;10537688;28;20059;-70
2024/03/23 06:57:46;;;;;;;1999.90;999.90;;;;;;;5.76;100.00;100829.59;10538104;28;20048;-70
2024/03/23 07:02:48;;;;;;;1999.90;999.90;;;;;;;6.16;100.00;100833.34;10537406;28;20059;-70
2024/03/23 07:07:50;;;;;;;1999.90;999.90;;;;;;;6.31;100.00;100837.94;10538564;28;20040;-70
2024/03/23 07:12:51;;;;;;;1999.90;999.90;;;;;;;6.63;100.00;100832.38;10545601;28;20075;-70
2024/03/23 07:17:52;;;;;;;1999.90;999.90;;;;;;;6.72;100.00;100837.19;10545380;28;20408;-70
2024/03/23 07:22:54;;;;;;;1999.90;999.90;;;;;;;6.59;100.00;100834.25;10544730;28;20386;-71
2024/03/23 07:27:55;;;;;;;1999.90;999.90;;;;;;;6.47;100.00;100842.53;10544911;28;20048;-70
2024/03/23 07:32:56;;;;;;;1999.90;999.90;;;;;;;6.87;100.00;100843.53;10544896;28;20052;-71
2024/03/23 07:38:05;;;;;;;1999.90;999.90;;;;;;;6.58;100.00;100848.16;10544758;28;20048;-71
2024/03/23 07:43:06;;;;;;;1999.90;999.90;;;;;;;6.85;100.00;100842.75;10544118;28;20056;-70
2024/03/23 07:48:08;;;;;;;1999.90;999.90;;;;;;;7.13;100.00;100832.03;10543638;28;20055;-71
2024/03/23 07:53:09;;;;;;;1999.90;999.90;;;;;;;8.03;100.00;100828.09;10527314;28;20064;-71
2024/03/23 07:58:10;;;;;;;1999.90;999.90;;;;;;;7.57;100.00;100834.47;10543446;28;20040;-71
2024/03/23 08:03:12;;;;;;;1999.90;999.90;;;;;;;7.23;100.00;100827.28;10542934;28;20052;-71
2024/03/23 08:08:13;;;;;;;1999.90;999.90;;;;;;;8.36;97.83;100829.13;10543452;28;20048;-71
2024/03/23 08:13:15;;;;;;;1999.90;999.90;;;;;;;8.98;95.42;100817.44;10542643;28;20494;-71
2024/03/23 08:18:17;;;;;;;1999.90;999.90;;;;;;;8.78;98.69;100815.88;10542401;28;20052;-71
2024/03/23 08:23:18;;;;;;;1999.90;999.90;;;;;;;8.04;98.16;100816.75;10542168;28;20051;-71
2024/03/23 08:28:20;;;;;;;1999.90;999.90;;;;;;;7.96;94.99;100820.53;10542002;28;20051;-71
2024/03/23 08:33:23;;;;;;;1999.90;999.90;;;;;;;8.34;94.97;100823.13;10525886;28;20102;-71
2024/03/23 08:38:25;;;;;;;1999.90;999.90;;;;;;;8.72;91.44;100819.59;10559220;28;20126;-71
2024/03/23 08:43:27;;;;;;;1999.90;999.90;;;;;;;9.29;86.48;100814.13;10524629;28;20051;-71
2024/03/23 08:48:29;;;;;;;1999.90;999.90;;;;;;;8.63;84.99;100809.63;10541210;28;20044;-71
2024/03/23 08:53:31;;;;;;;1999.90;999.90;;;;;;;8.12;88.70;100812.00;10541669;28;20079;-71
2024/03/23 08:58:33;;;;;;;1999.90;999.90;;;;;;;7.97;90.09;100814.44;10541678;28;20086;-71
2024/03/23 09:03:35;;;;;;;1999.90;999.90;;;;;;;7.72;87.96;100819.06;10540712;28;20059;-70
2024/03/23 09:08:36;;;;;;;1999.90;999.90;;;;;;;7.88;86.60;100812.22;10540169;28;20055;-70
2024/03/23 09:13:38;;;;;;;1999.90;999.90;;;;;;;7.54;88.70;100818.13;10540867;28;20070;-70
2024/03/23 09:18:40;;;;;;;1999.90;999.90;;;;;;;7.44;91.27;100812.47;10557657;28;20056;-69
2024/03/23 09:23:45;;;;;;;1999.90;999.90;;;;;;;6.73;94.57;100818.06;10540074;28;20408;-68
2024/03/23 09:28:49;;;;;;;1999.90;999.90;;;;;;;6.65;100.00;100807.97;10540821;28;20055;-69
2024/03/23 09:33:50;;;;;;;1999.90;999.90;;;;;;;6.41;100.00;100812.41;10556168;28;20056;-73
2024/03/23 09:38:52;;;;;;;1999.90;999.90;;;;;;;6.49;100.00;100820.78;10539109;28;20408;-68
2024/03/23 09:43:54;;;;;;;1999.90;999.90;;;;;;;6.36;100.00;100816.97;10540379;28;20055;-69
2024/03/23 09:48:56;;;;;;;1999.90;999.90;;;;;;;6.63;100.00;100814.16;10538851;28;20505;-69
2024/03/23 09:53:58;;;;;;;1999.90;999.90;;;;;;;7.47;99.67;100814.13;10539132;28;20056;-69
2024/03/23 09:59:03;;;;;;;1999.90;999.90;;;;;;;6.35;100.00;100830.84;10538768;28;20048;-68
2024/03/23 10:04:05;;;;;;;1999.90;999.90;;;;;;;5.93;99.62;100813.38;10521820;28;20086;-69
2024/03/23 10:09:21;;;;;;;1999.90;999.90;;;;;;;6.39;100.00;100810.78;10539051;28;20048;-68
2024/03/23 10:14:32;;;;;;;1999.90;999.90;;;;;;;9.47;99.35;100796.66;10538785;28;20074;-69
2024/03/23 10:19:33;;;;;;;1999.90;999.90;;;;;;;9.14;84.45;100794.88;10538086;28;20500;-68
2024/03/23 10:24:35;;;;;;;1999.90;999.90;;;;;;;8.70;84.64;100792.75;10555635;28;20074;-68
2024/03/23 10:29:36;;;;;;;1999.90;999.90;;;;;;;8.64;89.61;100795.66;10554627;28;20405;-69
2024/03/23 10:34:38;;;;;;;1999.90;999.90;;;;;;;11.89;82.25;100791.47;10538188;28;20105;-69
2024/03/23 10:39:41;;;;;;;1999.90;999.90;;;;;;;14.21;77.16;100776.72;10537367;28;20404;-69
2024/03/23 10:44:42;;;;;;;1999.90;999.90;;;;;;;10.07;83.33;100790.81;10542297;28;20390;-69
2024/03/23 10:49:44;;;;;;;1999.90;999.90;;;;;;;10.09;89.03;100783.72;10546151;28;20048;-69
2024/03/23 10:54:48;;;;;;;1999.90;999.90;;;;;;;10.48;84.85;100787.66;10529086;28;20451;-69
2024/03/23 10:59:49;;;;;;;1999.90;999.90;;;;;;;10.11;82.68;100781.03;10546704;28;20059;-69
2024/03/23 11:04:51;;;;;;;1999.90;999.90;;;;;;;14.29;76.88;100752.47;10546016;28;20101;-70
2024/03/23 11:09:53;;;;;;;1999.90;999.90;;;;;;;14.33;70.81;100753.09;10545172;28;20070;-70
2024/03/23 11:15:03;;;;;;;1999.90;999.90;;;;;;;12.38;65.59;100752.53;10545269;28;20145;-69
2024/03/23 11:20:05;;;;;;;1999.90;999.90;;;;;;;12.84;67.29;100754.72;10562416;28;20048;-69
2024/03/23 11:25:26;;;;;;;1999.90;999.90;;;;;;;13.46;65.31;100756.63;10545026;28;20062;-69
2024/03/23 11:30:31;;;;;;;1999.90;999.90;;;;;;;13.44;63.38;100758.53;10544436;28;20044;-69
2024/03/23 11:35:37;;;;;;;1999.90;999.90;;;;;;;13.26;61.79;100730.84;10527598;28;20052;-69
2024/03/23 11:40:41;;;;;;;1999.90;999.90;;;;;;;12.00;65.80;100745.34;10544697;28;20055;-71
2024/03/23 11:45:47;;;;;;;1999.90;999.90;;;;;;;10.72;66.72;100758.38;10544430;28;20078;-72
2024/03/23 11:50:50;;;;;;;1999.90;999.90;;;;;;;10.13;69.98;100785.22;10544452;28;20044;-72
2024/03/23 11:55:56;;;;;;;1999.90;999.90;;;;;;;9.51;81.50;100776.44;10543658;28;20064;-71
2024/03/23 12:01:05;;;;;;;1999.90;999.90;;;;;;;9.13;84.87;100780.13;10527010;28;20120;-72
2024/03/23 12:06:07;;;;;;;1999.90;999.90;;;;;;;7.82;86.93;100773.44;10544261;28;20109;-72
2024/03/23 12:11:14;;;;;;;1999.90;999.90;;;;;;;8.06;90.36;100784.47;10543550;28;20048;-72
2024/03/23 12:16:20;;;;;;;1999.90;999.90;;;;;;;8.41;88.29;100781.09;10543967;28;20048;-72
2024/03/23 12:21:22;;;;;;;1999.90;999.90;;;;;;;7.39;84.34;100775.38;10542768;28;20044;-72
2024/03/23 12:26:23;;;;;;;1999.90;999.90;;;;;;;7.73;83.24;100766.03;10542315;28;20508;-72
2024/03/23 12:31:25;;;;;;;1999.90;999.90;;;;;;;12.16;77.48;100751.31;10541691;28;20067;-72
2024/03/23 12:36:26;;;;;;;1999.90;999.90;;;;;;;12.78;71.78;100742.84;10541883;28;20519;-72
2024/03/23 12:41:28;;;;;;;1999.90;999.90;;;;;;;10.72;72.68;100732.19;10542287;28;20048;-71
2024/03/23 12:46:29;;;;;;;1999.90;999.90;;;;;;;12.70;68.93;100721.50;10541047;28;20052;-72
2024/03/23 12:51:31;;;;;;;1999.90;999.90;;;;;;;12.74;72.49;100716.88;10540882;28;20047;-72
2024/03/23 12:56:32;;;;;;;1999.90;999.90;;;;;;;15.10;63.90;100705.97;10540688;28;20089;-72
2024/03/23 13:01:33;;;;;;;1999.90;999.90;;;;;;;11.76;64.76;100709.22;10540649;28;20485;-72
2024/03/23 13:06:35;;;;;;;1999.90;999.90;;;;;;;11.97;62.54;100711.44;10539730;28;20512;-71
2024/03/23 13:11:36;;;;;;;1999.90;999.90;;;;;;;14.48;59.12;100707.16;10540254;28;20161;-73
2024/03/23 13:16:37;;;;;;;1999.90;999.90;;;;;;;12.93;62.22;100698.91;10540247;28;20485;-72
2024/03/23 13:21:39;;;;;;;1999.90;999.90;;;;;;;17.36;58.73;100680.38;10539859;28;20052;-72
2024/03/23 13:26:40;;;;;;;1999.90;999.90;;;;;;;11.17;58.73;100687.63;10540255;28;20056;-72
2024/03/23 13:31:42;;;;;;;1999.90;999.90;;;;;;;10.84;64.08;100701.81;10539810;28;20063;-72
2024/03/23 13:36:44;;;;;;;1999.90;999.90;;;;;;;10.33;68.55;100737.03;10522814;28;20059;-72
2024/03/23 13:41:45;;;;;;;1999.90;999.90;;;;;;;11.83;71.13;100721.00;10556989;28;20052;-71
2024/03/23 13:46:47;;;;;;;1999.90;999.90;;;;;;;11.34;68.36;100727.56;10539520;28;20059;-72
2024/03/23 13:51:48;;;;;;;1999.90;999.90;;;;;;;9.93;71.25;100734.03;10538899;28;20097;-72
2024/03/23 13:56:50;;;;;;;1999.90;999.90;;;;;;;12.14;66.47;100724.31;10556320;28;20055;-72
2024/03/23 14:01:52;;;;;;;1999.90;999.90;;;;;;;10.88;71.75;100742.63;10538838;28;20052;-71
2024/03/23 14:06:53;;;;;;;1999.90;999.90;;;;;;;10.54;69.19;100721.00;10543106;22;20055;-72
2024/03/23 14:11:55;;;;;;;1999.90;999.90;;;;;;;12.78;65.70;100705.22;10495686;28;20056;-72
2024/03/23 14:16:56;;;;;;;1999.90;999.90;;;;;;;12.94;66.12;100703.22;10478870;28;20485;-72
2024/03/23 14:21:58;;;;;;;1999.90;999.90;;;;;;;14.87;63.06;100673.47;10495943;28;20444;-73
2024/03/23 14:27:03;;;;;;;1999.90;999.90;;;;;;;14.27;57.54;100683.25;10495765;28;20067;-73
2024/03/23 14:32:05;;;;;;;1999.90;999.90;;;;;;;12.53;60.23;100683.25;10478824;28;20048;-72
2024/03/23 14:37:06;;;;;;;1999.90;999.90;;;;;;;12.62;58.66;100684.41;10479415;28;20052;-72
2024/03/23 14:42:10;;;;;;;1999.90;999.90;;;;;;;10.93;62.20;100693.41;10495505;28;20382;-71
2024/03/23 14:47:12;;;;;;;1999.90;999.90;;;;;;;10.99;68.73;100693.03;10479248;28;20056;-71
2024/03/23 14:52:14;;;;;;;1999.90;999.90;;;;;;;10.51;70.61;100659.22;10478976;28;20059;-71
2024/03/23 14:57:18;;;;;;;1999.90;999.90;;;;;;;9.52;67.88;100689.28;10495861;28;20060;-73
2024/03/23 15:02:20;;;;;;;1999.90;999.90;;;;;;;8.98;68.32;100684.28;10478879;28;20059;-72
2024/03/23 15:07:21;;;;;;;1999.90;999.90;;;;;;;9.14;71.91;100690.38;10495574;28;20060;-72
2024/03/23 15:12:23;;;;;;;1999.90;999.90;;;;;;;9.21;73.42;100725.72;10478890;28;20055;-71
2024/03/23 15:17:24;;;;;;;1999.90;999.90;;;;;;;6.42;80.62;100704.91;10461465;28;20052;-71
2024/03/23 15:22:25;;;;;;;1999.90;999.90;;;;;;;6.58;83.41;100694.69;10494991;28;20060;-72
2024/03/23 15:27:27;;;;;;;1999.90;999.90;;;;;;;7.13;84.81;100686.22;10495701;28;20060;-72
2024/03/23 15:32:28;;;;;;;1999.90;999.90;;;;;;;7.41;87.20;100685.84;10501364;28;20157;-73
2024/03/23 15:37:32;;;;;;;1999.90;999.90;;;;;;;8.17;85.82;100688.31;10502771;28;20056;-71
2024/03/23 15:42:33;;;;;;;1999.90;999.90;;;;;;;8.31;82.31;100684.19;10485925;28;20064;-71
2024/03/23 15:47:38;;;;;;;1999.90;999.90;;;;;;;8.23;80.18;100678.50;10469065;28;20090;-71
2024/03/23 15:52:39;;;;;;;1999.90;999.90;;;;;;;10.47;77.32;100660.31;10484596;28;20497;-71
2024/03/23 15:57:41;;;;;;;1999.90;999.90;;;;;;;11.05;73.96;100663.84;10501426;28;20056;-72
2024/03/23 16:02:43;;;;;;;1999.90;999.90;;;;;;;10.60;74.15;100661.28;10502412;28;20064;-72
2024/03/23 16:07:44;;;;;;;1999.90;999.90;;;;;;;11.88;71.18;100663.00;10484342;28;20455;-72
2024/03/23 16:12:45;;;;;;;1999.90;999.90;;;;;;;11.02;66.73;100658.78;10501164;28;20053;-71
2024/03/23 16:17:47;;;;;;;1999.90;999.90;;;;;;;9.42;76.29;100668.84;10484328;28;20114;-70
2024/03/23 16:22:48;;;;;;;1999.90;999.90;;;;;;;9.48;70.42;100662.44;10501145;28;20052;-71
2024/03/23 16:27:49;;;;;;;1999.90;999.90;;;;;;;13.56;59.34;100643.72;10500845;28;20478;-72
2024/03/23 16:32:51;;;;;;;1999.90;999.90;;;;;;;14.36;54.96;100639.63;10499796;28;20508;-72
2024/03/23 16:37:52;;;;;;;1999.90;999.90;;;;;;;12.44;61.23;100652.38;10500354;28;20053;-72
2024/03/23 16:42:54;;;;;;;1999.90;999.90;;;;;;;11.98;62.48;100650.16;10482700;28;20056;-72
2024/03/23 16:47:55;;;;;;;1999.90;999.90;;;;;;;10.86;61.21;100652.78;10499124;28;20492;-72
2024/03/23 16:52:57;;;;;;;1999.90;999.90;;;;;;;8.58;67.97;100655.88;10483083;28;20053;-71
2024/03/23 16:57:58;;;;;;;1999.90;999.90;;;;;;;8.13;72.45;100650.25;10482879;28;20052;-71
2024/03/23 17:03:00;;;;;;;1999.90;999.90;;;;;;;7.94;72.98;100652.09;10499238;28;20052;-71
2024/03/23 17:08:02;;;;;;;1999.90;999.90;;;;;;;7.74;76.47;100642.63;10499227;28;20057;-71
2024/03/23 17:13:03;;;;;;;1999.90;999.90;;;;;;;7.35;75.95;100631.41;10482286;28;20411;-72
2024/03/23 17:18:06;;;;;;;1999.90;999.90;;;;;;;7.16;77.76;100638.38;10482368;28;20041;-72
2024/03/23 17:23:10;;;;;;;1999.90;999.90;;;;;;;6.49;77.35;100643.91;10481989;28;20057;-71
2024/03/23 17:28:12;;;;;;;1999.90;999.90;;;;;;;6.73;79.50;100638.53;10481696;28;20049;-72
2024/03/23 17:33:14;;;;;;;1999.90;999.90;;;;;;;6.30;80.36;100629.97;10480686;28;20056;-72
2024/03/23 17:38:16;;;;;;;1999.90;999.90;;;;;;;6.73;81.18;100625.53;10480999;28;20048;-72
2024/03/23 17:43:17;;;;;;;1999.90;999.90;;;;;;;6.33;81.31;100629.84;10481374;28;20516;-72
2024/03/23 17:48:19;;;;;;;1999.90;999.90;;;;;;;6.25;80.60;100627.56;10497492;28;20048;-72
2024/03/23 17:53:20;;;;;;;1999.90;999.90;;;;;;;6.20;82.60;100637.31;10496568;28;20382;-72
2024/03/23 17:58:21;;;;;;;1999.90;999.90;;;;;;;5.97;83.68;100634.81;10480234;28;20040;-72
2024/03/23 18:03:23;;;;;;;1999.90;999.90;;;;;;;6.28;83.40;100642.19;10496829;28;20048;-72
2024/03/23 18:08:24;;;;;;;1999.90;999.90;;;;;;;5.86;84.34;100640.44;10480043;28;20057;-72
2024/03/23 18:13:26;;;;;;;1999.90;999.90;;;;;;;5.98;86.05;100644.31;10480790;28;20063;-72
2024/03/23 18:18:28;;;;;;;1999.90;999.90;;;;;;;5.90;85.84;100640.25;10479434;28;20382;-72
2024/03/23 18:23:30;;;;;;;1999.90;999.90;;;;;;;5.76;86.79;100650.34;10479912;28;20048;-72
2024/03/23 18:28:31;;;;;;;1999.90;999.90;;;;;;;5.73;85.91;100640.06;10479493;28;20049;-72
2024/03/23 18:33:36;;;;;;;1999.90;999.90;;;;;;;5.67;87.18;100640.31;10496274;28;20052;-72
2024/03/23 18:38:38;;;;;;;1999.90;999.90;;;;;;;5.83;87.39;100628.38;10479171;28;20110;-72
2024/03/23 18:43:41;;;;;;;1999.90;999.90;;;;;;;5.74;87.36;100644.34;10478758;28;20489;-71
2024/03/23 18:48:42;;;;;;;1999.90;999.90;;;;;;;5.63;88.27;100639.59;10495946;28;20048;-72
2024/03/23 18:53:44;;;;;;;1999.90;999.90;;;;;;;5.81;88.32;100630.22;10479386;28;20053;-72
2024/03/23 18:58:45;;;;;;;1999.90;999.90;;;;;;;5.56;90.27;100631.22;10495301;28;20413;-71
2024/03/23 19:03:47;;;;;;;1999.90;999.90;;;;;;;5.66;89.67;100625.63;10479628;28;20056;-73
2024/03/23 19:08:48;;;;;;;1999.90;999.90;;;;;;;5.72;90.63;100621.03;10486858;28;20049;-72
2024/03/23 19:13:50;;;;;;;1999.90;999.90;;;;;;;5.40;92.57;100624.91;10503204;28;20063;-72
2024/03/23 19:18:51;;;;;;;1999.90;999.90;;;;;;;5.32;93.74;100624.34;10503761;28;20049;-72
2024/03/23 19:23:53;;;;;;;1999.90;999.90;;;;;;;5.10;93.87;100621.72;10503369;28;20055;-72
2024/03/23 19:28:55;;;;;;;1999.90;999.90;;;;;;;5.10;94.99;100626.91;10486909;28;20053;-72
2024/03/23 19:33:56;;;;;;;1999.90;999.90;;;;;;;5.37;97.85;100623.25;10502320;28;20052;-72
2024/03/23 19:38:58;;;;;;;1999.90;999.90;;;;;;;5.08;98.16;100619.19;10469034;28;20048;-72
2024/03/23 19:44:00;;;;;;;1999.90;999.90;;;;;;;5.30;96.25;100624.41;10485401;28;20455;-72
2024/03/23 19:49:01;;;;;;;1999.90;999.90;;;;;;;5.24;97.56;100619.44;10502389;28;20105;-72
2024/03/23 19:54:03;;;;;;;1999.90;999.90;;;;;;;4.92;99.18;100618.91;10502548;28;20056;-72
2024/03/23 19:59:04;;;;;;;1999.90;999.90;;;;;;;5.05;100.00;100619.28;10502690;28;20048;-72
2024/03/23 20:04:05;;;;;;;1999.90;999.90;;;;;;;5.09;100.00;100620.84;10501801;28;20064;-72
2024/03/23 20:09:07;;;;;;;1999.90;999.90;;;;;;;5.01;99.72;100609.94;10501494;28;20059;-72
2024/03/23 20:14:09;;;;;;;1999.90;999.90;;;;;;;4.99;99.87;100601.34;10501341;28;20118;-72
2024/03/23 20:19:10;;;;;;;1999.90;999.90;;;;;;;5.10;100.00;100603.56;10484226;28;20048;-72
2024/03/23 20:24:12;;;;;;;1999.90;999.90;;;;;;;5.00;99.49;100595.28;10484374;28;20056;-72
2024/03/23 20:29:13;;;;;;;1999.90;999.90;;;;;;;4.98;99.97;100592.72;10484115;28;20052;-72
2024/03/23 20:34:14;;;;;;;1999.90;999.90;;;;;;;4.98;100.00;100595.31;10484682;28;20060;-72
2024/03/23 20:39:16;;;;;;;1999.90;999.90;;;;;;;4.98;100.00;100589.31;10500404;28;20119;-69
2024/03/23 20:44:17;;;;;;;1999.90;999.90;;;;;;;4.78;100.00;100583.09;10483403;28;20393;-72
2024/03/23 20:49:19;;;;;;;1999.90;999.90;;;;;;;5.01;100.00;100591.78;10499018;28;20052;-72
2024/03/23 20:54:20;;;;;;;1999.90;999.90;;;;;;;4.87;100.00;100597.47;10499938;28;20056;-73
2024/03/23 20:59:22;;;;;;;1999.90;999.90;;;;;;;5.16;100.00;100590.34;10466542;28;20052;-72
2024/03/23 21:04:23;;;;;;;1999.90;999.90;;;;;;;4.94;100.00;100588.56;10499196;28;20044;-72
2024/03/23 21:09:25;;;;;;;1999.90;999.90;;;;;;;4.67;100.00;100586.97;10498091;28;20421;-72
2024/03/23 21:14:26;;;;;;;1999.90;999.90;;;;;;;4.73;100.00;100581.56;10482052;28;20056;-72
2024/03/23 21:19:28;;;;;;;1999.90;999.90;;;;;;;4.87;100.00;100579.31;10498426;28;20049;-72
2024/03/23 21:24:29;;;;;;;1999.90;999.90;;;;;;;4.80;100.00;100570.91;10498380;28;20060;-72
2024/03/23 21:29:30;;;;;;;1999.90;999.90;;;;;;;4.73;100.00;100559.06;10480635;28;20057;-72
2024/03/23 21:34:32;;;;;;;1999.90;999.90;;;;;;;5.01;100.00;100547.69;10498231;28;20102;-72
2024/03/23 21:39:33;;;;;;;1999.90;999.90;;;;;;;4.76;100.00;100547.75;10497395;28;20548;-73
2024/03/23 21:44:35;;;;;;;1999.90;999.90;;;;;;;4.80;100.00;100552.75;10497462;28;20056;-72
2024/03/23 21:49:37;;;;;;;1999.90;999.90;;;;;;;4.63;100.00;100542.16;10480541;28;20049;-72
2024/03/23 21:54:40;;;;;;;1999.90;999.90;;;;;;;4.79;100.00;100532.06;10480381;28;20105;-72